createdAt,value
2019-04-04T00:01:47.820Z,68.50
2019-04-04T00:04:17.483Z,62.20
2019-04-04T00:06:47.808Z,65.50
2019-04-04T00:09:18.119Z,62.60
2019-04-04T00:11:48.541Z,62.10
2019-04-04T00:14:18.946Z,61.40
2019-04-04T00:16:49.380Z,61.70
2019-04-04T00:19:19.843Z,61.10
2019-04-04T00:21:50.016Z,61.20
2019-04-04T00:24:20.338Z,64.20
2019-04-04T00:26:50.671Z,63.10
2019-04-04T00:29:20.886Z,62.50
2019-04-04T00:31:51.185Z,63.70
2019-04-04T00:34:21.459Z,61.50
2019-04-04T00:36:51.746Z,61.90
2019-04-04T00:39:21.971Z,60.20
2019-04-04T00:41:52.280Z,58.80
2019-04-04T00:44:23.149Z,62.70
2019-04-04T00:46:53.917Z,59.00
2019-04-04T00:49:24.143Z,59.90
2019-04-04T00:51:54.551Z,59.70
2019-04-04T00:54:24.816Z,58.70
2019-04-04T00:56:55.546Z,58.70
2019-04-04T00:59:25.949Z,59.20
2019-04-04T01:01:56.982Z,58.80
2019-04-04T01:04:30.752Z,58.60
2019-04-04T01:06:59.997Z,57.90
2019-04-04T01:09:30.356Z,59.80
2019-04-04T01:12:00.688Z,58.50
2019-04-04T01:14:31.071Z,57.80
2019-04-04T01:17:02.035Z,59.60
2019-04-04T01:19:33.313Z,58.10
2019-04-04T01:22:03.620Z,57.30
2019-04-04T01:24:34.010Z,57.90
2019-04-04T01:27:06.214Z,60.50
2019-04-04T01:29:36.288Z,57.90
2019-04-04T01:32:06.607Z,58.30
2019-04-04T01:34:36.787Z,57.90
2019-04-04T01:37:07.084Z,59.30
2019-04-04T01:39:37.297Z,57.40
2019-04-04T01:42:07.931Z,58.50
2019-04-04T01:44:40.067Z,57.70
2019-04-04T01:47:10.355Z,59.30
2019-04-04T01:49:40.507Z,57.50
2019-04-04T01:52:10.723Z,58.20
2019-04-04T01:54:40.961Z,58.40
2019-04-04T01:57:11.243Z,59.90
2019-04-04T01:59:41.991Z,58.90
2019-04-04T02:02:13.465Z,58.70
2019-04-04T02:04:43.729Z,57.10
2019-04-04T02:07:13.879Z,58.50
2019-04-04T02:09:44.167Z,57.70
2019-04-04T02:12:14.488Z,58.90
2019-04-04T02:14:44.823Z,61.50
2019-04-04T02:17:15.095Z,58.40
2019-04-04T02:19:45.335Z,58.30
2019-04-04T02:22:15.527Z,57.60
2019-04-04T02:24:45.717Z,57.80
2019-04-04T02:27:16.020Z,59.20
2019-04-04T02:29:46.271Z,57.40
2019-04-04T02:32:18.135Z,57.10
2019-04-04T02:34:48.241Z,58.60
2019-04-04T02:37:20.614Z,56.90
2019-04-04T02:39:50.338Z,57.90
2019-04-04T02:42:22.234Z,59.10
2019-04-04T02:44:52.692Z,58.00
2019-04-04T02:47:22.871Z,58.10
2019-04-04T02:49:53.066Z,60.40
2019-04-04T02:52:23.249Z,57.90
2019-04-04T02:54:57.092Z,60.60
2019-04-04T02:57:25.217Z,58.70
2019-04-04T02:59:55.362Z,61.70
2019-04-04T03:02:25.696Z,60.30
2019-04-04T03:04:56.002Z,62.90
2019-04-04T03:07:29.782Z,61.00
2019-04-04T03:09:58.367Z,58.10
2019-04-04T03:12:28.553Z,58.10
2019-04-04T03:14:58.860Z,59.50
2019-04-04T03:17:31.713Z,58.20
2019-04-04T03:20:01.044Z,59.90
2019-04-04T03:22:31.278Z,62.10
2019-04-04T03:25:01.607Z,59.30
2019-04-04T03:27:31.738Z,58.80
2019-04-04T03:30:02.020Z,60.50
2019-04-04T03:32:32.181Z,60.60
2019-04-04T03:35:02.489Z,60.50
2019-04-04T03:37:32.879Z,60.40
2019-04-04T03:40:02.998Z,64.70
2019-04-04T03:42:33.311Z,59.80
2019-04-04T03:45:03.513Z,60.10
2019-04-04T03:47:33.800Z,63.10
2019-04-04T03:50:04.088Z,62.80
2019-04-04T03:52:34.327Z,59.40
2019-04-04T03:55:05.238Z,62.20
2019-04-04T03:57:35.589Z,63.40
2019-04-04T04:00:07.457Z,62.20
2019-04-04T04:02:37.972Z,60.00
2019-04-04T04:05:24.945Z,63.80
2019-04-04T04:07:55.254Z,59.90
2019-04-04T04:10:25.458Z,58.80
2019-04-04T04:12:55.765Z,60.60
2019-04-04T04:15:29.347Z,61.10
2019-04-04T04:17:57.880Z,63.60
2019-04-04T04:20:28.304Z,60.20
2019-04-04T04:22:58.894Z,61.80
2019-04-04T04:25:29.212Z,61.20
2019-04-04T04:28:02.814Z,59.00
2019-04-04T04:30:31.541Z,67.80
2019-04-04T04:33:01.815Z,64.40
2019-04-04T04:35:32.153Z,60.80
2019-04-04T04:38:02.329Z,62.30
2019-04-04T04:40:32.522Z,60.70
2019-04-04T04:43:02.931Z,63.20
2019-04-04T04:45:33.115Z,60.50
2019-04-04T04:48:03.499Z,62.40
2019-04-04T04:50:33.784Z,62.50
2019-04-04T04:53:04.687Z,61.50
2019-04-04T04:55:34.920Z,67.40
2019-04-04T04:58:05.246Z,60.60
2019-04-04T05:00:35.944Z,59.50
2019-04-04T05:03:06.226Z,65.80
2019-04-04T05:05:36.536Z,61.90
2019-04-04T05:08:09.663Z,68.00
2019-04-04T05:10:38.658Z,64.40
2019-04-04T05:13:09.090Z,62.40
2019-04-04T05:15:39.254Z,62.10
2019-04-04T05:18:11.799Z,60.70
2019-04-04T05:20:41.451Z,61.70
2019-04-04T05:23:15.190Z,64.70
2019-04-04T05:25:53.360Z,60.50
2019-04-04T05:28:15.558Z,65.60
2019-04-04T05:30:47.260Z,64.00
2019-04-04T05:33:17.855Z,65.20
2019-04-04T05:35:48.015Z,62.50
2019-04-04T05:38:18.339Z,64.60
2019-04-04T05:40:48.627Z,61.30
2019-04-04T05:43:18.969Z,65.00
2019-04-04T05:45:49.136Z,64.90
2019-04-04T05:48:19.416Z,62.30
2019-04-04T05:50:49.569Z,61.90
2019-04-04T05:53:21.423Z,67.70
2019-04-04T05:55:51.663Z,65.30
2019-04-04T05:58:22.729Z,61.70
2019-04-04T06:00:53.200Z,60.40
2019-04-04T06:03:23.441Z,61.70
2019-04-04T06:05:53.697Z,63.10
2019-04-04T06:08:23.942Z,65.90
2019-04-04T06:10:54.160Z,68.30
2019-04-04T06:13:25.024Z,66.00
2019-04-04T06:15:56.239Z,65.90
2019-04-04T06:18:26.405Z,66.20
2019-04-04T06:20:56.681Z,64.90
2019-04-04T06:23:27.004Z,65.20
2019-04-04T06:25:57.298Z,64.40
2019-04-04T06:28:29.211Z,67.70
2019-04-04T06:31:00.869Z,65.80
2019-04-04T06:33:31.181Z,74.60
2019-04-04T06:36:01.383Z,70.90
2019-04-04T06:38:31.539Z,64.70
2019-04-04T06:41:01.940Z,68.90
2019-04-04T06:43:32.115Z,64.00
2019-04-04T06:46:02.366Z,66.10
2019-04-04T06:48:33.791Z,69.00
2019-04-04T06:51:05.811Z,64.80
2019-04-04T06:53:36.003Z,65.80
2019-04-04T06:56:06.234Z,71.30
2019-04-04T06:58:40.033Z,65.00
2019-04-04T07:01:10.966Z,69.10
2019-04-04T07:03:40.293Z,67.80
2019-04-04T07:06:10.901Z,64.70
2019-04-04T07:08:41.406Z,69.00
2019-04-04T07:11:21.276Z,66.40
2019-04-04T07:13:43.658Z,65.80
2019-04-04T07:16:13.965Z,64.70
2019-04-04T07:18:44.129Z,65.20
2019-04-04T07:21:14.353Z,67.40
2019-04-04T07:23:44.701Z,65.00
2019-04-04T07:26:15.082Z,66.90
2019-04-04T07:28:45.385Z,63.80
2019-04-04T07:31:16.183Z,64.30
2019-04-04T07:33:46.576Z,64.70
2019-04-04T07:36:19.900Z,67.40
2019-04-04T07:38:48.869Z,65.00
2019-04-04T07:41:19.201Z,68.80
2019-04-04T07:43:51.563Z,69.30
2019-04-04T07:46:22.255Z,67.30
2019-04-04T07:48:52.607Z,68.60
2019-04-04T07:51:23.055Z,65.20
2019-04-04T07:53:53.366Z,66.30
2019-04-04T07:56:23.686Z,66.30
2019-04-04T07:58:54.029Z,65.60
2019-04-04T08:01:24.381Z,65.40
2019-04-04T08:03:54.684Z,66.10
2019-04-04T08:06:25.061Z,65.70
2019-04-04T08:08:55.370Z,68.50
2019-04-04T08:11:25.768Z,64.70
2019-04-04T08:13:56.059Z,65.90
2019-04-04T08:16:26.439Z,64.10
2019-04-04T08:18:56.735Z,63.20
2019-04-04T08:21:27.115Z,64.90
2019-04-04T08:23:57.505Z,64.20
2019-04-04T08:26:27.876Z,63.90
2019-04-04T08:28:58.176Z,66.20
2019-04-04T08:31:28.582Z,63.20
2019-04-04T08:33:58.893Z,64.20
2019-04-04T08:36:29.280Z,66.20
2019-04-04T08:38:59.608Z,63.20
2019-04-04T08:41:29.944Z,63.60
2019-04-04T08:44:00.302Z,64.80
2019-04-04T08:46:30.662Z,63.70
2019-04-04T08:49:00.981Z,66.30
2019-04-04T08:51:31.330Z,67.00
2019-04-04T08:54:01.731Z,65.10
2019-04-04T08:56:32.057Z,65.80
2019-04-04T08:59:02.414Z,64.50
2019-04-04T09:01:32.794Z,63.50
2019-04-04T09:04:03.107Z,65.80
2019-04-04T09:06:33.470Z,63.60
2019-04-04T09:09:05.944Z,63.10
2019-04-04T09:11:36.314Z,63.70
2019-04-04T09:14:06.578Z,63.10
2019-04-04T09:16:36.883Z,62.60
2019-04-04T09:19:07.257Z,63.00
2019-04-04T09:21:37.654Z,62.10
2019-04-04T09:24:07.984Z,61.80
2019-04-04T09:26:38.310Z,63.30
2019-04-04T09:29:08.656Z,62.30
2019-04-04T09:31:38.982Z,63.30
2019-04-04T09:34:09.335Z,63.00
2019-04-04T09:36:39.742Z,62.50
2019-04-04T09:39:10.031Z,62.50
2019-04-04T09:41:40.347Z,62.40
2019-04-04T09:44:10.656Z,63.70
2019-04-04T09:46:40.988Z,64.00
2019-04-04T09:49:12.918Z,62.60
2019-04-04T09:51:43.402Z,62.00
2019-04-04T09:54:13.726Z,61.70
2019-04-04T09:56:44.130Z,61.60
2019-04-04T09:59:14.468Z,61.80
2019-04-04T10:01:44.803Z,61.60
2019-04-04T10:04:15.149Z,61.90
2019-04-04T10:06:45.460Z,61.60
2019-04-04T10:09:16.482Z,61.40
2019-04-04T10:11:47.401Z,62.20
2019-04-04T10:14:17.722Z,61.30
2019-04-04T10:16:48.064Z,61.00
2019-04-04T10:19:18.432Z,60.90
2019-04-04T10:21:48.788Z,61.00
2019-04-04T10:24:19.170Z,61.00
2019-04-04T10:26:49.568Z,60.80
2019-04-04T10:29:19.908Z,60.90
2019-04-04T10:31:50.236Z,60.70
2019-04-04T10:34:20.527Z,60.60
2019-04-04T10:36:50.898Z,60.30
2019-04-04T10:39:28.669Z,60.40
2019-04-04T10:41:53.166Z,61.00
2019-04-04T10:44:23.506Z,61.30
2019-04-04T10:46:53.872Z,61.10
2019-04-04T10:49:24.219Z,60.60
2019-04-04T10:51:54.602Z,61.40
2019-04-04T10:54:25.022Z,61.20
2019-04-04T10:56:55.371Z,61.50
2019-04-04T10:59:25.766Z,61.30
2019-04-04T11:01:57.740Z,61.00
2019-04-04T11:04:28.231Z,60.70
2019-04-04T11:06:58.628Z,60.20
2019-04-04T11:09:40.912Z,60.50
2019-04-04T11:12:01.049Z,60.20
2019-04-04T11:14:31.434Z,60.90
2019-04-04T11:17:01.796Z,60.10
2019-04-04T11:19:32.181Z,60.60
2019-04-04T11:22:02.463Z,60.70
2019-04-04T11:24:32.747Z,60.10
2019-04-04T11:27:03.148Z,60.20
2019-04-04T11:29:33.553Z,60.60
2019-04-04T11:32:03.879Z,60.20
2019-04-04T11:34:34.197Z,61.00
2019-04-04T11:37:04.671Z,60.80
2019-04-04T11:39:35.085Z,60.60
2019-04-04T11:42:05.405Z,60.40
2019-04-04T11:44:35.725Z,60.20
2019-04-04T11:47:06.025Z,59.70
2019-04-04T11:49:36.373Z,59.40
2019-04-04T11:52:06.737Z,59.30
2019-04-04T11:54:56.313Z,59.10
2019-04-04T11:57:26.898Z,59.30
2019-04-04T11:59:57.253Z,59.30
2019-04-04T12:02:32.346Z,59.40
2019-04-04T12:05:01.853Z,59.20
2019-04-04T12:07:32.234Z,59.70
2019-04-04T12:10:07.739Z,59.40
2019-04-04T12:12:34.604Z,59.10
2019-04-04T12:15:05.737Z,59.10
2019-04-04T12:17:36.139Z,59.00
2019-04-04T12:20:06.757Z,59.00
2019-04-04T12:22:37.057Z,59.00
2019-04-04T12:25:07.743Z,59.00
2019-04-04T12:27:38.101Z,58.70
2019-04-04T12:30:09.268Z,58.50
2019-04-04T12:32:39.643Z,58.50
2019-04-04T12:35:10.031Z,59.10
2019-04-04T12:37:40.375Z,58.80
2019-04-04T12:40:20.530Z,59.70
2019-04-04T12:42:42.719Z,59.50
2019-04-04T12:45:13.372Z,59.30
2019-04-04T12:47:43.828Z,58.90
2019-04-04T12:50:14.877Z,59.20
2019-04-04T12:52:45.233Z,59.20
2019-04-04T12:55:15.544Z,59.20
2019-04-04T12:57:45.943Z,59.00
2019-04-04T13:00:16.307Z,59.30
2019-04-04T13:02:46.643Z,59.30
2019-04-04T13:05:16.955Z,58.90
2019-04-04T13:07:47.335Z,59.00
2019-04-04T13:10:17.899Z,58.90
2019-04-04T13:12:48.217Z,59.20
2019-04-04T13:15:18.641Z,59.60
2019-04-04T13:17:48.947Z,59.20
2019-04-04T13:20:19.385Z,59.10
2019-04-04T13:22:49.724Z,59.00
2019-04-04T13:25:20.063Z,59.20
2019-04-04T13:27:50.355Z,60.20
2019-04-04T13:30:20.829Z,60.80
2019-04-04T13:32:51.319Z,60.50
2019-04-04T13:35:21.681Z,60.00
2019-04-04T13:37:52.123Z,59.60
2019-04-04T13:40:22.439Z,60.20
2019-04-04T13:42:53.439Z,59.60
2019-04-04T13:45:25.236Z,60.30
2019-04-04T13:47:56.389Z,60.90
2019-04-04T13:50:26.729Z,60.50
2019-04-04T13:52:57.099Z,61.10
2019-04-04T13:55:27.944Z,60.70
2019-04-04T13:57:58.677Z,59.70
2019-04-04T14:00:29.252Z,59.70
2019-04-04T14:02:59.588Z,58.90
2019-04-04T14:05:29.914Z,58.10
2019-04-04T14:08:00.781Z,57.30
2019-04-04T14:10:31.813Z,57.40
2019-04-04T14:13:02.132Z,57.20
2019-04-04T14:15:32.437Z,57.50
2019-04-04T14:18:07.691Z,57.60
2019-04-04T14:20:36.352Z,57.80
2019-04-04T14:23:06.720Z,57.60
2019-04-04T14:25:37.053Z,58.00
2019-04-04T14:28:07.420Z,58.10
2019-04-04T14:30:37.720Z,57.90
2019-04-04T14:33:08.038Z,59.30
2019-04-04T14:35:38.378Z,58.20
2019-04-04T14:38:08.719Z,58.10
2019-04-04T14:40:39.204Z,58.80
2019-04-04T14:43:09.635Z,59.40
2019-04-04T14:45:39.989Z,58.50
2019-04-04T14:48:10.989Z,59.90
2019-04-04T14:50:41.960Z,60.10
2019-04-04T14:53:12.384Z,58.30
2019-04-04T14:55:42.740Z,58.60
2019-04-04T14:58:13.075Z,59.60
2019-04-04T15:00:43.469Z,60.30
2019-04-04T15:03:13.816Z,59.30
2019-04-04T15:05:44.153Z,59.30
2019-04-04T15:08:14.463Z,60.00
2019-04-04T15:10:44.863Z,58.70
2019-04-04T15:13:15.221Z,60.20
2019-04-04T15:16:17.605Z,58.80
2019-04-04T15:18:50.916Z,62.00
2019-04-04T15:21:21.423Z,62.70
2019-04-04T15:23:51.786Z,64.90
2019-04-04T15:26:22.210Z,62.10
2019-04-04T15:28:52.600Z,61.80
2019-04-04T15:31:22.913Z,61.50
2019-04-04T15:33:53.231Z,64.00
2019-04-04T15:36:23.616Z,61.20
2019-04-04T15:38:56.117Z,60.60
2019-04-04T15:41:36.282Z,64.70
2019-04-04T15:43:58.559Z,62.80
2019-04-04T15:46:28.942Z,63.60
2019-04-04T15:48:59.253Z,62.00
2019-04-04T15:51:29.596Z,62.20
2019-04-04T15:53:59.931Z,61.90
2019-04-04T15:56:30.101Z,61.50
2019-04-04T15:59:00.443Z,61.20
2019-04-04T16:01:30.603Z,63.00
2019-04-04T16:04:00.885Z,60.50
2019-04-04T16:06:31.232Z,62.80
2019-04-04T16:09:01.556Z,60.50
2019-04-04T16:11:31.772Z,61.20
2019-04-04T16:14:01.946Z,60.30
2019-04-04T16:16:32.222Z,62.40
2019-04-04T16:19:02.406Z,61.40
2019-04-04T16:21:32.802Z,60.90
2019-04-04T16:24:03.095Z,62.50
2019-04-04T16:26:33.410Z,66.20
2019-04-04T16:29:03.693Z,66.30
2019-04-04T16:31:34.568Z,62.70
2019-04-04T16:34:05.059Z,62.00
2019-04-04T16:36:35.279Z,61.00
2019-04-04T16:39:08.190Z,60.90
2019-04-04T16:41:38.371Z,64.10
2019-04-04T16:44:08.735Z,62.60
2019-04-04T16:46:39.095Z,61.10
2019-04-04T16:49:09.430Z,60.40
2019-04-04T16:51:39.598Z,60.40
2019-04-04T16:54:09.934Z,60.10
2019-04-04T16:56:40.125Z,59.40
2019-04-04T16:59:10.539Z,61.40
2019-04-04T17:01:40.716Z,60.30
2019-04-04T17:04:10.929Z,60.30
2019-04-04T17:06:41.298Z,59.70
2019-04-04T17:09:11.509Z,61.60
2019-04-04T17:11:41.759Z,62.10
2019-04-04T17:14:11.939Z,61.20
2019-04-04T17:16:42.267Z,63.80
2019-04-04T17:19:12.431Z,67.10
2019-04-04T17:21:42.774Z,61.60
2019-04-04T17:24:12.936Z,61.00
2019-04-04T17:26:43.241Z,61.60
2019-04-04T17:29:13.464Z,63.90
2019-04-04T17:31:43.780Z,65.00
2019-04-04T17:34:14.013Z,63.50
2019-04-04T17:36:44.466Z,62.20
2019-04-04T17:39:14.926Z,65.30
2019-04-04T17:41:45.578Z,62.30
2019-04-04T17:44:16.067Z,67.30
2019-04-04T17:46:46.223Z,65.00
2019-04-04T17:49:17.000Z,62.00
2019-04-04T17:51:47.298Z,67.00
2019-04-04T17:54:17.644Z,70.40
2019-04-04T17:56:47.919Z,65.80
2019-04-04T17:59:18.276Z,71.10
2019-04-04T18:01:48.441Z,66.40
2019-04-04T18:04:18.606Z,72.50
2019-04-04T18:06:48.866Z,69.20
2019-04-04T18:09:30.894Z,73.90
2019-04-04T18:11:51.109Z,68.40
2019-04-04T18:14:21.290Z,67.70
2019-04-04T18:16:51.632Z,67.90
2019-04-04T18:19:21.905Z,70.30
2019-04-04T18:21:52.287Z,68.70
2019-04-04T18:24:22.570Z,73.20
2019-04-04T18:26:52.863Z,69.00
2019-04-04T18:29:23.039Z,70.40
2019-04-04T18:31:53.362Z,71.20
2019-04-04T18:34:23.593Z,75.90
2019-04-04T18:36:54.282Z,70.80
2019-04-04T18:39:26.581Z,72.20
2019-04-04T18:41:56.810Z,73.30
2019-04-04T18:44:27.366Z,76.60
2019-04-04T18:46:57.713Z,68.70
2019-04-04T18:49:27.981Z,71.70
2019-04-04T18:51:58.280Z,77.30
2019-04-04T18:54:28.714Z,71.50
2019-04-04T18:56:58.974Z,71.50
2019-04-04T18:59:29.284Z,69.20
2019-04-04T19:01:59.559Z,71.40
2019-04-04T19:04:29.894Z,70.40
2019-04-04T19:07:00.160Z,73.50
2019-04-04T19:09:30.468Z,69.00
2019-04-04T19:12:00.601Z,72.20
2019-04-04T19:14:30.811Z,67.90
2019-04-04T19:17:01.117Z,68.70
2019-04-04T19:19:31.340Z,67.60
2019-04-04T19:22:01.564Z,72.20
2019-04-04T19:24:31.793Z,67.60
2019-04-04T19:27:02.068Z,67.80
2019-04-04T19:29:32.293Z,66.60
2019-04-04T19:32:03.234Z,71.20
2019-04-04T19:34:33.422Z,75.50
2019-04-04T19:37:03.886Z,69.60
2019-04-04T19:39:34.096Z,68.40
2019-04-04T19:42:05.078Z,70.70
2019-04-04T19:44:35.604Z,66.30
2019-04-04T19:47:06.292Z,68.50
2019-04-04T19:49:36.591Z,66.80
2019-04-04T19:52:06.829Z,71.50
2019-04-04T19:54:37.191Z,69.40
2019-04-04T19:57:07.459Z,68.10
2019-04-04T19:59:37.717Z,69.60
2019-04-04T20:02:07.990Z,75.00
2019-04-04T20:04:38.325Z,70.00
2019-04-04T20:07:08.545Z,69.50
2019-04-04T20:09:38.900Z,79.60
2019-04-04T20:12:09.092Z,79.50
2019-04-04T20:14:39.357Z,75.00
2019-04-04T20:17:09.522Z,72.80
2019-04-04T20:19:39.811Z,79.00
2019-04-04T20:22:10.153Z,73.40
2019-04-04T20:24:40.339Z,85.70
2019-04-04T20:27:10.722Z,84.50
2019-04-04T20:29:40.943Z,86.60
2019-04-04T20:32:11.350Z,87.20
2019-04-04T20:34:41.582Z,83.80
2019-04-04T20:37:11.988Z,82.00
2019-04-04T20:39:42.228Z,80.60
2019-04-04T20:42:12.523Z,78.60
2019-04-04T20:44:42.728Z,75.00
2019-04-04T20:47:13.075Z,89.30
2019-04-04T20:49:43.376Z,82.60
2019-04-04T20:52:13.542Z,77.00
2019-04-04T20:54:43.958Z,77.20
2019-04-04T20:57:14.230Z,75.00
2019-04-04T20:59:44.592Z,74.90
2019-04-04T21:02:14.912Z,73.50
2019-04-04T21:04:45.199Z,75.60
2019-04-04T21:07:15.526Z,77.10
2019-04-04T21:09:45.854Z,77.00
2019-04-04T21:12:16.168Z,85.40
2019-04-04T21:14:46.440Z,88.50
2019-04-04T21:17:16.621Z,80.50
2019-04-04T21:19:46.818Z,80.90
2019-04-04T21:22:26.786Z,82.60
2019-04-04T21:24:49.195Z,78.90
2019-04-04T21:27:19.519Z,76.10
2019-04-04T21:29:49.663Z,74.60
2019-04-04T21:32:20.002Z,74.60
2019-04-04T21:34:50.255Z,76.90
2019-04-04T21:37:20.550Z,85.50
2019-04-04T21:39:50.834Z,80.50
2019-04-04T21:42:21.171Z,80.00
2019-04-04T21:44:51.489Z,75.40
2019-04-04T21:47:21.797Z,81.70
2019-04-04T21:49:52.051Z,76.10
2019-04-04T21:52:22.290Z,75.80
2019-04-04T21:54:52.680Z,73.80
2019-04-04T21:57:22.859Z,77.10
2019-04-04T21:59:53.115Z,83.10
2019-04-04T22:02:23.234Z,91.80
2019-04-04T22:04:53.564Z,86.80
2019-04-04T22:07:23.802Z,84.90
2019-04-04T22:09:54.227Z,89.60
2019-04-04T22:12:24.414Z,79.30
2019-04-04T22:14:54.745Z,89.00
2019-04-04T22:17:24.950Z,84.80
2019-04-04T22:19:55.096Z,79.10
2019-04-04T22:22:25.339Z,79.10
2019-04-04T22:24:55.679Z,84.60
2019-04-04T22:27:25.906Z,82.40
2019-04-04T22:29:56.205Z,82.90
2019-04-04T22:32:26.436Z,91.50
2019-04-04T22:34:56.633Z,90.40
2019-04-04T22:37:27.009Z,92.80
2019-04-04T22:39:57.225Z,94.50
2019-04-04T22:42:28.083Z,92.40
2019-04-04T22:44:58.423Z,92.10
2019-04-04T22:47:28.671Z,95.90
2019-04-04T22:49:58.971Z,95.90
2019-04-04T22:52:29.275Z,87.80
2019-04-04T22:54:59.645Z,86.00
2019-04-04T22:57:29.835Z,85.80
2019-04-04T23:00:00.003Z,92.20
2019-04-04T23:02:30.347Z,92.70
2019-04-04T23:05:00.762Z,92.40
2019-04-04T23:07:31.062Z,86.80
2019-04-04T23:10:01.320Z,91.90
2019-04-04T23:12:31.562Z,89.70
2019-04-04T23:15:01.903Z,84.40
2019-04-04T23:17:32.065Z,82.30
2019-04-04T23:20:02.355Z,89.50
2019-04-04T23:22:32.532Z,92.90
2019-04-04T23:25:02.784Z,91.10
2019-04-04T23:27:33.063Z,96.70
2019-04-04T23:30:03.181Z,91.10
2019-04-04T23:32:33.524Z,94.00
2019-04-04T23:35:03.810Z,86.20
2019-04-04T23:37:34.140Z,96.60
2019-04-04T23:40:04.587Z,92.30
2019-04-04T23:42:34.957Z,90.60
2019-04-04T23:45:05.883Z,88.40
2019-04-04T23:47:42.614Z,87.10
2019-04-04T23:50:08.244Z,84.30
2019-04-04T23:52:38.627Z,83.70
2019-04-04T23:55:09.015Z,91.20
2019-04-04T23:57:39.210Z,88.10
